Chicken, AK (99732)

6:15 PM AKDT on May 28, 2015 (GMT -0800)
RAWS | | Change Station
CLOSE
Current Station
Personal Weather Station
Location: Chicken, AK
Elevation: 2060 ft
Nearby Weather Stations

Elev 2060 ft 64.06 °N, 141.93 °W | Updated 55 minutes ago

Mostly Cloudy
Mostly Cloudy
63 °F
Feels Like 63 °F
N
0
Wind Variable Wind from North
Gusts 5.0 mph

Today
High -- | Low -- °F
--% Chance of Precip.
Yesterday
High -- | Low -- °F
Precip. -- in
3:39 AM 11:14 PM
Waxing Gibbous, 80% visible
Pressure 30.12 in
Visibility 10.0 miles
Clouds Few 6000 ft
Scattered Clouds 10000 ft
Mostly Cloudy 20000 ft
Dew Point 56 °F
Humidity 77%
Rainfall in
Snow Depth Not available.
UV 2 out of 12
Pollen Not available.
Air Quality Not available.
Flu Activity Local Activity
METAR PAOR 290153Z 00000KT 10SM FEW060 SCT100 BKN200 23/07 A3013 RMK AO2 SLP198 CB SE CIG THN T02330067

More Conditions Fewer Conditions

Pressure 30.12 in
Visibility 10.0 miles
Clouds Few 6000 ft
Scattered Clouds 10000 ft
Mostly Cloudy 20000 ft
Dew Point 56 °F
Humidity 77%
Rainfall in
Snow Depth Not available.
UV 2 out of 12
Pollen Not available.
Air Quality Not available.
Flu Activity Local Activity
METAR PAOR 290153Z 00000KT 10SM FEW060 SCT100 BKN200 23/07 A3013 RMK AO2 SLP198 CB SE CIG THN T02330067

More Conditions Fewer Conditions

10-Day Weather Forecast

Almanac

Astronomy

May. 28, 2015 Rise Set
Actual Time
Civil Twilight
Nautical Twilight
Astronomical Twilight
Moon
Length of Visible Light
Length of Day
Tomorrow will be .
, % of the Moon is Illuminated

Today's Extremes

State Highs State Lows

Community

WunderPhotos

Upload Photos

1,825,128 photos uploaded!

WunderBlogs® & News

Nearby

Air Quality

  Air Quality AQ Index Pollutant
Not available.

Snow Depth

Station Depth Elevation

Earthquake Activity

City Distance Mag. Time & Date
Minimum magnitude displayed is 2.5.

Coastal Water Temperatures

Place Temperature

Stations

Nearby Weather Stations

Station Location Temp. Windchill Dew Point Humidity Wind Precip. Elev Updated Type